Time;durP1;ratioP1;P1;durP2;ratioP2;P2;SDS_P1;SDS_P2;PMS_P1;PMS_P2;Temp;Humidity;BMP_temperature;BMP_pressure;BME280_temperature;BME280_humidity;BME280_pressure;Samples;Min_cycle;Max_cycle;Signal;HPM_P1;HPM_P2
2023/10/30 00:02:06;;;;;;;3.07;2.60;;;;;;;;;;5062870;28;20207;-77
2023/10/30 00:04:34;;;;;;;3.57;1.77;;;;;;;;;;5062978;28;20202;-77
2023/10/30 00:07:00;;;;;;;3.53;1.90;;;;;;;;;;5062232;28;20203;-77
2023/10/30 00:09:27;;;;;;;3.20;1.73;;;;;;;;;;5062894;28;20743;-77
2023/10/30 00:11:55;;;;;;;9.70;5.27;;;;;;;;;;5062982;28;20203;-77
2023/10/30 00:14:21;;;;;;;10.50;6.30;;;;;;;;;;5063107;28;20225;-77
2023/10/30 00:16:48;;;;;;;6.00;3.07;;;;;;;;;;5060677;28;20237;-76
2023/10/30 00:19:16;;;;;;;6.07;2.40;;;;;;;;;;5064076;28;20202;-77
2023/10/30 00:21:43;;;;;;;6.73;1.83;;;;;;;;;;5062271;28;20213;-77
2023/10/30 00:24:10;;;;;;;2.57;2.07;;;;;;;;;;5058542;28;20205;-78
2023/10/30 00:26:38;;;;;;;2.90;2.30;;;;;;;;;;5062671;28;20258;-77
2023/10/30 00:29:05;;;;;;;2.80;2.17;;;;;;;;;;5062871;28;20218;-76
2023/10/30 00:31:31;;;;;;;7.63;4.27;;;;;;;;;;5061246;28;20201;-77
2023/10/30 00:33:58;;;;;;;8.03;3.93;;;;;;;;;;5063468;28;20204;-77
2023/10/30 00:36:26;;;;;;;6.20;2.77;;;;;;;;;;5062452;28;20719;-77
2023/10/30 00:38:53;;;;;;;6.03;2.83;;;;;;;;;;5062953;28;20209;-77
2023/10/30 00:41:20;;;;;;;4.47;2.57;;;;;;;;;;5062098;28;20679;-77
2023/10/30 00:43:46;;;;;;;5.83;2.33;;;;;;;;;;5062512;28;20194;-77
2023/10/30 00:46:13;;;;;;;5.37;2.20;;;;;;;;;;5062267;28;20201;-77
2023/10/30 00:48:40;;;;;;;4.00;2.00;;;;;;;;;;5062410;28;20206;-78
2023/10/30 00:51:15;;;;;;;5.90;2.43;;;;;;;;;;5097302;27;20577;-78
2023/10/30 00:53:42;;;;;;;4.87;2.63;;;;;;;;;;5097355;28;20219;-78
2023/10/30 00:56:09;;;;;;;3.43;2.17;;;;;;;;;;5094511;28;20595;-78
2023/10/30 00:58:35;;;;;;;5.10;2.30;;;;;;;;;;5097843;28;20204;-78
2023/10/30 01:01:02;;;;;;;4.27;2.00;;;;;;;;;;5097536;28;20213;-78
2023/10/30 01:03:29;;;;;;;3.27;2.17;;;;;;;;;;5097224;28;20653;-78
2023/10/30 01:05:57;;;;;;;3.37;2.63;;;;;;;;;;5095093;28;20201;-78
2023/10/30 01:08:26;;;;;;;4.87;2.43;;;;;;;;;;5096900;28;20234;-78
2023/10/30 01:10:53;;;;;;;3.43;2.00;;;;;;;;;;5093049;28;20217;-78
2023/10/30 01:13:20;;;;;;;8.07;2.40;;;;;;;;;;5097356;28;20200;-78
2023/10/30 01:15:46;;;;;;;2.77;1.87;;;;;;;;;;5096166;28;20683;-78
2023/10/30 01:18:15;;;;;;;2.73;2.47;;;;;;;;;;5096306;28;20251;-78
2023/10/30 01:20:42;;;;;;;5.43;2.90;;;;;;;;;;5098400;28;20185;-78
2023/10/30 01:23:09;;;;;;;5.67;2.53;;;;;;;;;;5097116;28;20292;-78
2023/10/30 01:25:38;;;;;;;2.60;2.33;;;;;;;;;;5093105;28;20763;-78
2023/10/30 01:28:07;;;;;;;5.80;2.90;;;;;;;;;;5095472;28;20197;-78
2023/10/30 01:30:34;;;;;;;4.90;2.13;;;;;;;;;;5097812;28;20256;-78
2023/10/30 01:33:01;;;;;;;5.90;2.30;;;;;;;;;;5096358;28;20747;-78
2023/10/30 01:35:28;;;;;;;2.50;2.10;;;;;;;;;;5095849;28;20207;-78
2023/10/30 01:37:54;;;;;;;4.73;2.30;;;;;;;;;;5096514;28;20203;-79
2023/10/30 01:40:21;;;;;;;5.13;2.37;;;;;;;;;;5096855;28;20189;-77
2023/10/30 01:42:50;;;;;;;7.23;2.43;;;;;;;;;;5097144;28;20205;-75
2023/10/30 01:45:16;;;;;;;2.17;1.83;;;;;;;;;;5093019;28;20784;-75
2023/10/30 01:47:43;;;;;;;2.60;2.33;;;;;;;;;;5095917;28;20196;-75
2023/10/30 01:50:13;;;;;;;3.03;2.20;;;;;;;;;;5097635;28;20231;-75
2023/10/30 01:52:39;;;;;;;5.10;2.03;;;;;;;;;;5093372;28;20208;-76
2023/10/30 01:55:06;;;;;;;2.07;1.83;;;;;;;;;;5098852;28;20208;-75
2023/10/30 01:57:34;;;;;;;4.07;2.07;;;;;;;;;;5094895;28;20249;-76
2023/10/30 02:00:03;;;;;;;2.17;1.97;;;;;;;;;;5096451;28;20204;-75
2023/10/30 02:02:31;;;;;;;2.53;2.30;;;;;;;;;;5082507;28;20204;-75
2023/10/30 02:04:57;;;;;;;3.97;2.17;;;;;;;;;;5083192;28;20283;-75
2023/10/30 02:07:24;;;;;;;4.93;2.63;;;;;;;;;;5081993;28;20201;-75
2023/10/30 02:09:51;;;;;;;4.17;2.20;;;;;;;;;;5082601;28;20270;-75
2023/10/30 02:12:18;;;;;;;4.77;2.30;;;;;;;;;;5079212;28;20633;-75
2023/10/30 02:14:45;;;;;;;4.67;2.13;;;;;;;;;;5083177;28;20713;-78
2023/10/30 02:17:13;;;;;;;5.47;2.27;;;;;;;;;;5084189;28;20216;-78
2023/10/30 02:19:40;;;;;;;2.37;2.00;;;;;;;;;;5082502;28;20254;-79
2023/10/30 02:22:06;;;;;;;4.40;2.57;;;;;;;;;;5081425;28;20214;-78
2023/10/30 02:24:33;;;;;;;3.37;2.17;;;;;;;;;;5081728;28;20201;-78
2023/10/30 02:27:02;;;;;;;4.77;2.40;;;;;;;;;;5080632;28;20207;-78
2023/10/30 02:29:29;;;;;;;4.90;2.10;;;;;;;;;;5082561;28;20586;-78
2023/10/30 02:31:56;;;;;;;4.00;2.27;;;;;;;;;;5083123;28;20212;-77
2023/10/30 02:34:22;;;;;;;3.20;2.03;;;;;;;;;;5078928;28;20709;-78
2023/10/30 02:36:49;;;;;;;2.63;2.37;;;;;;;;;;5078815;28;20683;-77
2023/10/30 02:39:16;;;;;;;3.67;2.03;;;;;;;;;;5081912;28;20216;-77
2023/10/30 02:41:42;;;;;;;2.70;2.23;;;;;;;;;;5079850;28;20192;-77
2023/10/30 02:44:11;;;;;;;5.67;2.43;;;;;;;;;;5081514;28;20196;-80
2023/10/30 02:46:37;;;;;;;5.67;2.63;;;;;;;;;;5080514;28;20679;-77
2023/10/30 02:49:04;;;;;;;3.87;2.27;;;;;;;;;;5078016;28;20687;-77
2023/10/30 02:51:31;;;;;;;3.07;1.73;;;;;;;;;;5082814;28;20224;-77
2023/10/30 02:53:57;;;;;;;2.57;1.90;;;;;;;;;;5078030;28;20201;-77
2023/10/30 02:56:24;;;;;;;2.70;2.00;;;;;;;;;;5079628;28;20200;-77
2023/10/30 02:58:51;;;;;;;2.20;1.93;;;;;;;;;;5080825;28;20197;-77
2023/10/30 03:01:19;;;;;;;3.47;1.87;;;;;;;;;;5078789;28;20201;-77
2023/10/30 03:03:46;;;;;;;4.73;2.30;;;;;;;;;;5078848;28;20231;-77
2023/10/30 03:06:13;;;;;;;2.90;2.10;;;;;;;;;;5078904;28;20209;-77
2023/10/30 03:08:39;;;;;;;2.47;1.87;;;;;;;;;;5078991;28;20687;-79
2023/10/30 03:11:06;;;;;;;4.40;2.30;;;;;;;;;;5079897;28;20714;-77
2023/10/30 03:13:33;;;;;;;5.07;2.33;;;;;;;;;;5080433;28;20204;-77
2023/10/30 03:16:00;;;;;;;4.43;2.10;;;;;;;;;;5082525;28;20369;-77
2023/10/30 03:18:28;;;;;;;2.00;1.80;;;;;;;;;;5077841;28;20219;-77
2023/10/30 03:20:54;;;;;;;3.40;2.13;;;;;;;;;;5079190;28;20251;-77
2023/10/30 03:23:21;;;;;;;2.80;1.83;;;;;;;;;;5079933;28;20202;-77
2023/10/30 03:25:48;;;;;;;3.10;1.67;;;;;;;;;;5078179;28;20200;-77
2023/10/30 03:28:15;;;;;;;3.33;1.70;;;;;;;;;;5081269;28;20561;-75
2023/10/30 03:30:41;;;;;;;4.57;1.90;;;;;;;;;;5079708;28;20225;-74
2023/10/30 03:33:09;;;;;;;2.10;1.77;;;;;;;;;;5078949;28;20273;-75
2023/10/30 03:35:39;;;;;;;1.87;1.57;;;;;;;;;;5079907;28;20368;-74
2023/10/30 03:38:06;;;;;;;3.90;1.80;;;;;;;;;;5080196;28;20200;-75
2023/10/30 03:40:33;;;;;;;3.10;2.00;;;;;;;;;;5080665;28;20189;-75
2023/10/30 03:43:00;;;;;;;3.07;1.93;;;;;;;;;;5079987;28;20205;-74
2023/10/30 03:45:27;;;;;;;3.07;2.83;;;;;;;;;;5078935;28;20197;-75
2023/10/30 03:47:53;;;;;;;2.03;1.73;;;;;;;;;;5080122;28;20205;-74
2023/10/30 03:50:20;;;;;;;2.73;1.67;;;;;;;;;;5080320;28;20228;-75
2023/10/30 03:52:48;;;;;;;1.83;1.67;;;;;;;;;;5077346;28;20209;-75
2023/10/30 03:55:15;;;;;;;2.67;1.97;;;;;;;;;;5081365;28;20197;-76
2023/10/30 03:57:43;;;;;;;4.23;1.97;;;;;;;;;;5073420;28;20197;-74
2023/10/30 04:00:11;;;;;;;2.30;1.80;;;;;;;;;;5076340;28;20208;-74
2023/10/30 04:02:38;;;;;;;3.90;2.60;;;;;;;;;;5070218;28;20707;-75
2023/10/30 04:05:06;;;;;;;2.93;2.17;;;;;;;;;;5076330;28;20201;-75
2023/10/30 04:07:33;;;;;;;3.10;2.10;;;;;;;;;;5073146;28;20284;-74
2023/10/30 04:10:01;;;;;;;3.83;1.90;;;;;;;;;;5069829;28;21335;-78
2023/10/30 04:12:28;;;;;;;12.20;8.30;;;;;;;;;;5069630;28;20193;-76
2023/10/30 04:14:55;;;;;;;4.67;4.00;;;;;;;;;;5070510;28;20200;-75
2023/10/30 04:17:22;;;;;;;4.83;4.30;;;;;;;;;;5079880;28;20258;-75
2023/10/30 04:19:49;;;;;;;3.63;2.97;;;;;;;;;;5077162;28;20201;-74
2023/10/30 04:22:15;;;;;;;4.00;2.40;;;;;;;;;;5070868;28;20212;-75
2023/10/30 04:24:42;;;;;;;4.87;2.00;;;;;;;;;;5077310;28;20197;-75
2023/10/30 04:27:10;;;;;;;2.40;2.20;;;;;;;;;;5072850;28;20234;-73
2023/10/30 04:29:37;;;;;;;3.30;2.60;;;;;;;;;;5070880;28;20213;-74
2023/10/30 04:32:05;;;;;;;6.37;3.53;;;;;;;;;;5075756;28;20228;-74
2023/10/30 04:34:32;;;;;;;5.60;3.30;;;;;;;;;;5078518;28;20204;-74
2023/10/30 04:36:58;;;;;;;3.23;2.50;;;;;;;;;;5070190;28;20204;-74
2023/10/30 04:39:25;;;;;;;3.57;3.27;;;;;;;;;;5074121;28;20197;-74
2023/10/30 04:41:53;;;;;;;4.87;2.63;;;;;;;;;;5078747;28;20204;-74
2023/10/30 04:44:21;;;;;;;5.17;2.63;;;;;;;;;;5075788;28;20566;-74
2023/10/30 04:46:48;;;;;;;5.93;3.57;;;;;;;;;;5073745;28;20246;-74
2023/10/30 04:49:15;;;;;;;7.63;6.57;;;;;;;;;;5074649;28;20229;-74
2023/10/30 04:51:42;;;;;;;16.70;14.13;;;;;;;;;;5070359;28;20225;-75
2023/10/30 04:54:08;;;;;;;29.90;22.10;;;;;;;;;;5070600;28;20201;-74
2023/10/30 04:56:35;;;;;;;8.37;6.87;;;;;;;;;;5076004;28;20193;-74
2023/10/30 04:59:02;;;;;;;16.27;12.10;;;;;;;;;;5070543;28;20576;-74
2023/10/30 05:01:30;;;;;;;7.43;4.83;;;;;;;;;;5075640;28;20201;-75
2023/10/30 05:03:58;;;;;;;4.27;2.97;;;;;;;;;;5070443;28;20209;-75
2023/10/30 05:06:24;;;;;;;14.20;5.93;;;;;;;;;;5076726;28;20201;-74
2023/10/30 05:08:51;;;;;;;18.97;12.20;;;;;;;;;;5069887;28;20696;-75
2023/10/30 05:11:18;;;;;;;13.17;10.43;;;;;;;;;;5073006;28;20229;-74
2023/10/30 05:13:45;;;;;;;7.60;4.90;;;;;;;;;;5069745;28;20254;-74
2023/10/30 05:16:11;;;;;;;3.53;2.83;;;;;;;;;;5070340;28;20212;-75
2023/10/30 05:18:40;;;;;;;5.43;4.53;;;;;;;;;;5070011;28;20201;-74
2023/10/30 05:21:07;;;;;;;8.33;6.30;;;;;;;;;;5069306;28;20263;-75
2023/10/30 05:23:34;;;;;;;6.00;4.80;;;;;;;;;;5061262;28;20213;-74
2023/10/30 05:26:01;;;;;;;7.43;2.90;;;;;;;;;;5056571;28;20205;-74
2023/10/30 05:28:28;;;;;;;2.77;2.10;;;;;;;;;;5060078;28;20600;-77
2023/10/30 05:30:55;;;;;;;3.40;2.10;;;;;;;;;;5053899;28;20225;-77
2023/10/30 05:33:22;;;;;;;7.60;2.30;;;;;;;;;;5069792;28;20198;-77
2023/10/30 05:35:53;;;;;;;3.93;2.90;;;;;;;;;;5068851;28;20554;-77
2023/10/30 05:38:20;;;;;;;3.13;2.10;;;;;;;;;;5062116;28;20630;-77
2023/10/30 05:40:46;;;;;;;2.07;1.87;;;;;;;;;;5065473;28;20240;-77
2023/10/30 05:43:14;;;;;;;2.57;1.83;;;;;;;;;;5066031;28;20599;-78
2023/10/30 05:45:40;;;;;;;4.07;1.63;;;;;;;;;;5066825;28;20197;-76
2023/10/30 05:48:07;;;;;;;3.00;2.30;;;;;;;;;;5067415;28;20212;-77
2023/10/30 05:50:34;;;;;;;2.10;1.90;;;;;;;;;;5068038;28;20244;-77
2023/10/30 05:53:02;;;;;;;2.90;2.00;;;;;;;;;;5068071;28;20197;-76
2023/10/30 05:55:29;;;;;;;2.80;2.07;;;;;;;;;;5066597;28;20198;-77
2023/10/30 05:57:56;;;;;;;3.30;2.10;;;;;;;;;;5068207;28;20619;-77
2023/10/30 06:00:24;;;;;;;2.50;1.67;;;;;;;;;;5064949;28;20197;-77
2023/10/30 06:02:52;;;;;;;4.67;1.73;;;;;;;;;;5067225;28;20284;-77
2023/10/30 06:05:18;;;;;;;8.70;2.33;;;;;;;;;;5067860;28;20281;-77
2023/10/30 06:07:45;;;;;;;2.57;1.70;;;;;;;;;;5072909;28;20254;-78
2023/10/30 06:10:14;;;;;;;2.73;1.87;;;;;;;;;;5071920;28;20205;-78
2023/10/30 06:12:41;;;;;;;3.10;2.03;;;;;;;;;;5072023;28;20299;-78
2023/10/30 06:15:09;;;;;;;3.13;2.07;;;;;;;;;;5071198;28;20210;-78
2023/10/30 06:17:36;;;;;;;3.13;2.60;;;;;;;;;;5070991;28;20205;-79
2023/10/30 06:20:03;;;;;;;3.63;2.67;;;;;;;;;;5070817;28;20201;-77
2023/10/30 06:22:30;;;;;;;3.93;2.40;;;;;;;;;;5069625;28;20212;-77
2023/10/30 06:24:58;;;;;;;7.83;2.20;;;;;;;;;;5070336;28;20225;-77
2023/10/30 06:27:27;;;;;;;6.80;2.40;;;;;;;;;;5068188;28;20208;-78
2023/10/30 06:29:54;;;;;;;7.97;3.07;;;;;;;;;;5059701;28;20219;-76
2023/10/30 06:32:21;;;;;;;6.77;2.63;;;;;;;;;;5066666;28;20710;-76
2023/10/30 06:34:47;;;;;;;10.00;3.17;;;;;;;;;;5069093;28;20205;-81
2023/10/30 06:37:15;;;;;;;3.07;2.50;;;;;;;;;;5058849;28;20218;-79
2023/10/30 06:39:42;;;;;;;6.43;2.93;;;;;;;;;;5066686;28;20209;-80
2023/10/30 06:42:09;;;;;;;2.47;2.27;;;;;;;;;;5072587;28;20206;-76
2023/10/30 06:44:37;;;;;;;3.87;2.77;;;;;;;;;;5073080;28;20208;-78
2023/10/30 06:47:04;;;;;;;7.03;2.93;;;;;;;;;;5072257;28;20210;-78
2023/10/30 06:49:31;;;;;;;9.07;2.60;;;;;;;;;;5072795;28;20238;-78
2023/10/30 06:52:00;;;;;;;6.17;3.57;;;;;;;;;;5059644;28;20231;-76
2023/10/30 06:54:27;;;;;;;6.87;2.77;;;;;;;;;;5071347;28;20211;-77
2023/10/30 06:56:54;;;;;;;14.13;8.47;;;;;;;;;;5071865;28;20676;-77
2023/10/30 06:59:21;;;;;;;16.00;8.30;;;;;;;;;;5072661;28;20209;-79
2023/10/30 07:01:50;;;;;;;10.13;4.17;;;;;;;;;;5064272;28;20208;-77
2023/10/30 07:04:17;;;;;;;10.53;3.60;;;;;;;;;;5057482;28;20209;-76
2023/10/30 07:06:44;;;;;;;8.30;3.50;;;;;;;;;;5063589;28;20208;-77
2023/10/30 07:09:12;;;;;;;10.63;4.50;;;;;;;;;;5072060;28;20583;-77
2023/10/30 07:11:40;;;;;;;11.77;4.50;;;;;;;;;;5072049;28;20228;-76
2023/10/30 07:14:08;;;;;;;7.57;3.00;;;;;;;;;;5064615;28;20252;-76
2023/10/30 07:16:35;;;;;;;5.07;2.97;;;;;;;;;;5071352;28;20706;-74
2023/10/30 07:19:04;;;;;;;9.33;2.67;;;;;;;;;;5071961;28;20201;-74
2023/10/30 07:21:31;;;;;;;4.13;2.17;;;;;;;;;;5071052;28;20216;-74
2023/10/30 07:23:58;;;;;;;6.00;1.90;;;;;;;;;;5071692;28;20204;-74
2023/10/30 07:26:25;;;;;;;8.43;2.77;;;;;;;;;;5071734;28;20588;-75
2023/10/30 07:28:53;;;;;;;13.57;7.37;;;;;;;;;;5071698;28;20197;-78
2023/10/30 07:31:20;;;;;;;8.17;4.13;;;;;;;;;;5071111;28;20255;-76
2023/10/30 07:33:49;;;;;;;20.80;9.97;;;;;;;;;;5071263;28;20215;-76
2023/10/30 07:36:17;;;;;;;21.90;10.10;;;;;;;;;;5070022;28;20209;-76
2023/10/30 07:38:44;;;;;;;20.67;4.63;;;;;;;;;;5070659;28;20201;-75
2023/10/30 07:41:11;;;;;;;14.10;3.50;;;;;;;;;;5071765;28;20212;-77
2023/10/30 07:43:38;;;;;;;15.37;3.20;;;;;;;;;;5068469;28;20698;-76
2023/10/30 07:46:07;;;;;;;9.33;3.13;;;;;;;;;;5071205;28;20201;-76
2023/10/30 07:48:34;;;;;;;16.93;3.47;;;;;;;;;;5071089;28;20265;-75
2023/10/30 07:51:02;;;;;;;7.10;2.70;;;;;;;;;;5071597;28;20239;-75
2023/10/30 07:53:31;;;;;;;5.37;2.27;;;;;;;;;;5071042;28;20201;-75
2023/10/30 07:55:59;;;;;;;11.20;3.07;;;;;;;;;;5071359;28;20259;-75
2023/10/30 07:58:26;;;;;;;6.43;2.40;;;;;;;;;;5070567;28;20265;-75
2023/10/30 08:00:54;;;;;;;4.47;3.20;;;;;;;;;;5070433;28;20212;-75
2023/10/30 08:03:20;;;;;;;8.93;2.73;;;;;;;;;;5064585;28;20581;-76
2023/10/30 08:05:47;;;;;;;5.33;2.20;;;;;;;;;;5070864;28;20207;-75
2023/10/30 08:08:17;;;;;;;4.30;2.50;;;;;;;;;;5070733;28;20201;-76
2023/10/30 08:10:47;;;;;;;5.13;2.57;;;;;;;;;;5070926;28;20209;-78
2023/10/30 08:13:15;;;;;;;6.17;3.20;;;;;;;;;;5057792;28;20232;-76
2023/10/30 08:15:42;;;;;;;6.87;2.30;;;;;;;;;;5070739;28;20209;-76
2023/10/30 08:18:09;;;;;;;6.20;2.00;;;;;;;;;;5071376;28;20209;-76
2023/10/30 08:20:35;;;;;;;7.73;2.53;;;;;;;;;;5069552;28;20209;-76
2023/10/30 08:23:02;;;;;;;5.00;3.27;;;;;;;;;;5067947;28;20208;-76
2023/10/30 08:25:29;;;;;;;3.67;2.60;;;;;;;;;;5058218;28;20229;-75
2023/10/30 08:27:59;;;;;;;3.63;2.87;;;;;;;;;;5051768;28;20197;-79
2023/10/30 08:30:26;;;;;;;3.37;2.33;;;;;;;;;;5058064;28;20202;-75
2023/10/30 08:32:53;;;;;;;4.30;1.87;;;;;;;;;;5053028;28;20260;-77
2023/10/30 08:35:20;;;;;;;6.30;2.73;;;;;;;;;;5051501;28;20218;-77
2023/10/30 08:37:47;;;;;;;5.77;2.50;;;;;;;;;;5051200;28;20206;-77
2023/10/30 08:40:14;;;;;;;6.53;2.37;;;;;;;;;;5055348;28;20201;-78
2023/10/30 08:42:41;;;;;;;6.97;2.30;;;;;;;;;;5063375;28;20270;-76
2023/10/30 08:45:10;;;;;;;3.70;2.30;;;;;;;;;;5070091;28;20209;-78
2023/10/30 08:47:37;;;;;;;5.50;2.67;;;;;;;;;;5069709;28;20205;-79
2023/10/30 08:50:05;;;;;;;8.30;2.80;;;;;;;;;;5070480;28;20231;-79
2023/10/30 08:52:32;;;;;;;4.70;2.23;;;;;;;;;;5069783;28;20237;-79
2023/10/30 08:54:59;;;;;;;7.87;2.53;;;;;;;;;;5070734;28;20197;-79
2023/10/30 08:57:26;;;;;;;4.90;2.67;;;;;;;;;;5069122;28;20208;-79
2023/10/30 08:59:54;;;;;;;6.90;3.83;;;;;;;;;;5070399;28;20288;-79
2023/10/30 09:02:22;;;;;;;4.63;2.70;;;;;;;;;;5070418;28;20224;-79
2023/10/30 09:04:50;;;;;;;8.30;3.23;;;;;;;;;;5069921;28;20205;-79
2023/10/30 09:07:17;;;;;;;7.90;3.13;;;;;;;;;;5070504;28;20209;-79
2023/10/30 09:09:44;;;;;;;7.00;3.17;;;;;;;;;;5070777;28;20201;-79
2023/10/30 09:12:10;;;;;;;8.20;3.40;;;;;;;;;;5072980;28;20232;-79
2023/10/30 09:14:37;;;;;;;14.17;4.57;;;;;;;;;;5074427;28;20204;-80
2023/10/30 09:17:08;;;;;;;5.37;3.30;;;;;;;;;;5074026;28;20676;-80
2023/10/30 09:19:36;;;;;;;5.73;3.90;;;;;;;;;;5074029;28;20283;-80
2023/10/30 09:22:03;;;;;;;16.27;4.87;;;;;;;;;;5073987;28;20223;-80
2023/10/30 09:24:30;;;;;;;8.90;3.50;;;;;;;;;;5073872;28;20203;-80
2023/10/30 09:26:57;;;;;;;6.90;3.13;;;;;;;;;;5073725;28;20205;-79
2023/10/30 09:29:24;;;;;;;6.03;4.73;;;;;;;;;;5074024;28;20213;-80
2023/10/30 09:31:51;;;;;;;5.97;3.43;;;;;;;;;;5073567;28;20703;-80
2023/10/30 09:34:18;;;;;;;6.43;3.50;;;;;;;;;;5073913;28;20604;-79
2023/10/30 09:36:46;;;;;;;6.13;3.63;;;;;;;;;;5073686;28;20205;-80
2023/10/30 09:39:13;;;;;;;4.57;2.90;;;;;;;;;;5073837;28;20210;-80
2023/10/30 09:41:43;;;;;;;7.83;3.57;;;;;;;;;;5073323;28;20205;-80
2023/10/30 09:44:11;;;;;;;4.40;2.27;;;;;;;;;;5074019;28;20220;-80
2023/10/30 09:46:39;;;;;;;5.97;2.93;;;;;;;;;;5073647;28;20627;-80
2023/10/30 09:49:08;;;;;;;9.37;3.50;;;;;;;;;;5073816;28;20208;-80
2023/10/30 09:51:37;;;;;;;7.20;2.80;;;;;;;;;;5073441;28;20205;-80
2023/10/30 09:54:07;;;;;;;6.73;2.67;;;;;;;;;;5073601;28;20826;-80
2023/10/30 09:56:34;;;;;;;5.73;3.00;;;;;;;;;;5060160;28;20205;-80
2023/10/30 09:59:01;;;;;;;4.23;2.70;;;;;;;;;;5072955;28;20282;-80
2023/10/30 10:01:28;;;;;;;8.17;3.50;;;;;;;;;;5073423;28;20705;-80
2023/10/30 10:03:55;;;;;;;6.33;3.83;;;;;;;;;;5073454;28;20201;-80
2023/10/30 10:06:22;;;;;;;7.60;3.17;;;;;;;;;;5073099;28;20209;-80
2023/10/30 10:08:49;;;;;;;7.07;2.60;;;;;;;;;;5073130;28;20204;-80
2023/10/30 10:11:22;;;;;;;6.57;4.00;;;;;;;;;;5073537;28;20201;-83
2023/10/30 10:13:49;;;;;;;5.00;2.27;;;;;;;;;;5072930;28;20282;-80
2023/10/30 10:16:17;;;;;;;3.80;2.50;;;;;;;;;;5073053;28;20226;-80
2023/10/30 10:18:44;;;;;;;5.77;3.57;;;;;;;;;;5073180;28;20714;-80
2023/10/30 10:21:11;;;;;;;2.63;2.20;;;;;;;;;;5073042;28;20626;-81
2023/10/30 10:23:39;;;;;;;11.87;2.93;;;;;;;;;;5072604;28;20644;-80
2023/10/30 10:26:13;;;;;;;4.57;2.80;;;;;;;;;;5073148;28;20300;-80
2023/10/30 10:28:42;;;;;;;6.23;2.50;;;;;;;;;;5073025;28;20196;-80
2023/10/30 10:31:09;;;;;;;4.93;2.43;;;;;;;;;;5073097;28;20219;-80
2023/10/30 10:33:36;;;;;;;6.13;2.60;;;;;;;;;;5072550;28;20231;-80
2023/10/30 10:36:04;;;;;;;3.13;2.53;;;;;;;;;;5072557;28;20216;-80
2023/10/30 10:38:31;;;;;;;4.63;2.53;;;;;;;;;;5072650;28;20201;-79
2023/10/30 10:40:58;;;;;;;5.17;2.50;;;;;;;;;;5072889;28;20205;-80
2023/10/30 10:43:27;;;;;;;6.40;2.43;;;;;;;;;;5072407;28;20201;-79
2023/10/30 10:45:57;;;;;;;7.53;3.63;;;;;;;;;;5073035;28;20211;-80
2023/10/30 10:48:25;;;;;;;6.93;2.87;;;;;;;;;;5070860;28;20205;-80
2023/10/30 10:50:52;;;;;;;5.63;2.43;;;;;;;;;;5072663;28;20320;-80
2023/10/30 10:53:20;;;;;;;6.70;2.47;;;;;;;;;;5072011;28;20229;-80
2023/10/30 10:55:49;;;;;;;6.97;2.43;;;;;;;;;;5072677;28;20197;-81
2023/10/30 10:58:17;;;;;;;3.63;1.90;;;;;;;;;;5071987;28;20208;-80
2023/10/30 11:00:48;;;;;;;7.03;2.87;;;;;;;;;;5072193;28;20205;-80
2023/10/30 11:03:16;;;;;;;2.83;2.10;;;;;;;;;;5072189;28;20213;-80
2023/10/30 11:05:44;;;;;;;3.93;3.17;;;;;;;;;;5072158;28;20208;-80
2023/10/30 11:08:30;;;;;;;2.40;1.93;;;;;;;;;;5071949;28;20209;-79
2023/10/30 11:11:05;;;;;;;4.27;2.00;;;;;;;;;;5072052;28;20205;-79
2023/10/30 11:13:41;;;;;;;6.13;2.53;;;;;;;;;;5072057;28;20232;-80
2023/10/30 11:16:13;;;;;;;7.20;2.47;;;;;;;;;;5059851;28;20225;-80
2023/10/30 11:18:41;;;;;;;4.13;2.10;;;;;;;;;;5072160;28;20212;-79
2023/10/30 11:21:11;;;;;;;4.80;2.93;;;;;;;;;;5072198;28;20205;-80
2023/10/30 11:23:52;;;;;;;7.07;2.93;;;;;;;;;;5071919;28;20209;-80
2023/10/30 11:26:39;;;;;;;5.30;1.80;;;;;;;;;;5072328;28;20258;-80
2023/10/30 11:29:07;;;;;;;5.97;2.30;;;;;;;;;;5072156;28;20266;-80
2023/10/30 11:31:53;;;;;;;4.90;2.57;;;;;;;;;;5071337;28;20204;-80
2023/10/30 11:34:25;;;;;;;5.80;2.90;;;;;;;;;;5070518;28;20730;-80
2023/10/30 11:36:52;;;;;;;5.53;3.23;;;;;;;;;;5071240;28;20594;-81
2023/10/30 11:39:21;;;;;;;9.33;5.10;;;;;;;;;;5071583;28;20201;-80
2023/10/30 11:41:50;;;;;;;11.93;8.50;;;;;;;;;;5071827;28;20308;-80
2023/10/30 11:44:17;;;;;;;6.93;6.23;;;;;;;;;;5071805;28;20201;-79
2023/10/30 11:46:46;;;;;;;31.30;25.50;;;;;;;;;;5070400;28;20192;-80
2023/10/30 11:49:14;;;;;;;23.10;20.70;;;;;;;;;;5071605;28;20236;-80
2023/10/30 11:51:43;;;;;;;20.70;17.67;;;;;;;;;;5071281;28;20216;-80
2023/10/30 11:54:10;;;;;;;23.30;19.83;;;;;;;;;;5071303;28;20235;-81
2023/10/30 11:56:37;;;;;;;8.97;7.40;;;;;;;;;;5070934;28;20197;-80
2023/10/30 11:59:04;;;;;;;14.97;10.83;;;;;;;;;;5070960;28;20208;-80
2023/10/30 12:01:32;;;;;;;13.07;10.60;;;;;;;;;;5071382;28;20644;-80
2023/10/30 12:03:59;;;;;;;21.00;14.43;;;;;;;;;;5070867;28;20288;-80
2023/10/30 12:06:26;;;;;;;22.30;16.03;;;;;;;;;;5071135;28;20202;-81
2023/10/30 12:08:54;;;;;;;10.07;7.80;;;;;;;;;;5070858;28;20768;-80
2023/10/30 12:11:22;;;;;;;6.10;3.97;;;;;;;;;;5071065;28;20208;-82
2023/10/30 12:13:51;;;;;;;9.50;3.10;;;;;;;;;;5070890;28;20228;-81
2023/10/30 12:16:18;;;;;;;8.20;4.20;;;;;;;;;;5070672;28;20189;-81
2023/10/30 12:18:46;;;;;;;10.77;9.63;;;;;;;;;;5071109;28;20209;-81
2023/10/30 12:21:13;;;;;;;20.13;14.80;;;;;;;;;;5070852;28;20209;-81
2023/10/30 12:23:45;;;;;;;15.97;9.73;;;;;;;;;;5070474;28;20198;-81
2023/10/30 12:26:14;;;;;;;20.50;12.97;;;;;;;;;;5070703;28;20201;-81
2023/10/30 12:28:41;;;;;;;23.77;18.90;;;;;;;;;;5070380;28;20251;-81
2023/10/30 12:31:18;;;;;;;23.23;17.67;;;;;;;;;;5070610;28;20201;-81
2023/10/30 12:33:45;;;;;;;14.57;12.03;;;;;;;;;;5070626;28;20221;-81
2023/10/30 12:36:12;;;;;;;11.53;7.47;;;;;;;;;;5070484;28;20215;-81
2023/10/30 12:38:39;;;;;;;10.10;6.50;;;;;;;;;;5070311;28;20197;-80
2023/10/30 12:41:07;;;;;;;15.13;11.67;;;;;;;;;;5070779;28;20211;-81
2023/10/30 12:43:39;;;;;;;12.20;9.03;;;;;;;;;;5057002;28;20215;-80
2023/10/30 12:46:06;;;;;;;14.60;12.47;;;;;;;;;;5070451;28;20201;-81
2023/10/30 12:48:34;;;;;;;12.03;10.83;;;;;;;;;;5070598;28;20205;-81
2023/10/30 12:51:00;;;;;;;12.93;11.40;;;;;;;;;;5070399;28;20240;-80
2023/10/30 12:53:27;;;;;;;13.77;10.87;;;;;;;;;;5070678;28;20224;-80
2023/10/30 12:55:54;;;;;;;12.10;9.93;;;;;;;;;;5070855;28;20205;-81
2023/10/30 12:58:23;;;;;;;12.07;10.97;;;;;;;;;;5070668;28;20206;-80
2023/10/30 13:00:51;;;;;;;29.13;19.67;;;;;;;;;;5070235;28;20197;-80
2023/10/30 13:03:18;;;;;;;8.23;7.17;;;;;;;;;;5070407;28;20240;-80
2023/10/30 13:05:45;;;;;;;13.30;10.17;;;;;;;;;;5070071;28;20216;-81
2023/10/30 13:08:12;;;;;;;16.23;14.60;;;;;;;;;;5070383;28;20215;-80
2023/10/30 13:10:39;;;;;;;25.83;21.27;;;;;;;;;;5070191;28;20208;-80
2023/10/30 13:13:05;;;;;;;18.93;15.90;;;;;;;;;;5070026;28;20713;-81
2023/10/30 13:15:32;;;;;;;12.87;10.33;;;;;;;;;;5070284;28;20220;-81
2023/10/30 13:18:01;;;;;;;11.50;8.47;;;;;;;;;;5070147;28;20197;-81
2023/10/30 13:20:27;;;;;;;11.63;7.63;;;;;;;;;;5070331;28;20201;-80
2023/10/30 13:22:55;;;;;;;15.13;9.90;;;;;;;;;;5069910;28;20205;-81
2023/10/30 13:25:22;;;;;;;10.43;7.57;;;;;;;;;;5070262;28;20230;-80
2023/10/30 13:27:50;;;;;;;6.83;4.60;;;;;;;;;;5070127;28;20201;-81
2023/10/30 13:30:17;;;;;;;8.30;5.33;;;;;;;;;;5069997;28;20205;-80
2023/10/30 13:32:44;;;;;;;5.73;2.40;;;;;;;;;;5069741;28;20209;-82
2023/10/30 13:35:12;;;;;;;8.37;3.83;;;;;;;;;;5069854;28;20205;-80
2023/10/30 13:37:39;;;;;;;4.40;2.40;;;;;;;;;;5069934;28;20745;-81
2023/10/30 13:40:07;;;;;;;4.70;2.30;;;;;;;;;;5069458;28;20283;-81
2023/10/30 13:42:37;;;;;;;2.73;1.70;;;;;;;;;;5069663;28;20209;-80
2023/10/30 13:45:04;;;;;;;9.20;2.10;;;;;;;;;;5069918;28;20988;-80
2023/10/30 13:47:31;;;;;;;3.10;2.27;;;;;;;;;;5069886;28;20201;-80
2023/10/30 13:49:57;;;;;;;2.83;1.90;;;;;;;;;;5069561;28;20639;-81
2023/10/30 13:52:26;;;;;;;4.37;1.90;;;;;;;;;;5070660;28;20216;-80
2023/10/30 13:54:53;;;;;;;3.63;1.80;;;;;;;;;;5069670;28;20216;-80
2023/10/30 13:57:21;;;;;;;2.83;2.17;;;;;;;;;;5070411;28;20639;-81
2023/10/30 13:59:48;;;;;;;5.63;1.83;;;;;;;;;;5060077;28;20658;-80
2023/10/30 14:02:15;;;;;;;4.60;2.23;;;;;;;;;;5073389;28;20217;-80
2023/10/30 14:04:43;;;;;;;4.87;2.70;;;;;;;;;;5073862;28;20652;-80
2023/10/30 14:07:10;;;;;;;3.43;1.60;;;;;;;;;;5072942;28;20213;-80
2023/10/30 14:09:38;;;;;;;5.17;2.33;;;;;;;;;;5073531;28;20213;-80
2023/10/30 14:12:06;;;;;;;5.53;2.00;;;;;;;;;;5073291;28;20323;-80
2023/10/30 14:14:33;;;;;;;5.40;1.73;;;;;;;;;;5073568;28;20583;-80
2023/10/30 14:16:59;;;;;;;3.40;2.10;;;;;;;;;;5073009;28;20202;-80
2023/10/30 14:19:26;;;;;;;5.93;3.27;;;;;;;;;;5073015;28;20201;-80
2023/10/30 14:21:53;;;;;;;5.37;1.83;;;;;;;;;;5073056;28;20212;-80
2023/10/30 14:24:20;;;;;;;3.77;2.53;;;;;;;;;;5073515;28;20244;-80
2023/10/30 14:26:48;;;;;;;28.63;7.13;;;;;;;;;;5072651;28;20213;-80
2023/10/30 14:29:15;;;;;;;7.53;2.40;;;;;;;;;;5072825;28;20205;-80
2023/10/30 14:31:42;;;;;;;2.90;1.93;;;;;;;;;;5072883;28;20653;-80
2023/10/30 14:34:09;;;;;;;20.40;4.33;;;;;;;;;;5073057;28;20232;-80
2023/10/30 14:36:36;;;;;;;6.43;2.33;;;;;;;;;;5072183;28;20209;-80
2023/10/30 14:39:03;;;;;;;3.73;2.17;;;;;;;;;;5072905;28;20739;-80
2023/10/30 14:41:31;;;;;;;6.83;2.63;;;;;;;;;;5072460;28;20223;-81
2023/10/30 14:43:59;;;;;;;4.30;2.30;;;;;;;;;;5072894;28;20259;-80